createdAt,value
2023-06-27T00:00:35.382Z,34.10
2023-06-27T00:01:35.419Z,32.42
2023-06-27T00:02:35.421Z,32.69
2023-06-27T00:03:35.528Z,31.72
2023-06-27T00:04:35.499Z,31.76
2023-06-27T00:05:35.485Z,31.86
2023-06-27T00:06:35.538Z,32.16
2023-06-27T00:07:36.366Z,32.71
2023-06-27T00:08:35.574Z,32.86
2023-06-27T00:09:35.576Z,33.17
2023-06-27T00:10:35.650Z,33.35
2023-06-27T00:11:35.645Z,32.68
2023-06-27T00:12:35.689Z,32.93
2023-06-27T00:13:35.684Z,32.52
2023-06-27T00:14:35.707Z,31.67
2023-06-27T00:15:35.729Z,31.16
2023-06-27T00:16:35.784Z,30.49
2023-06-27T00:17:35.861Z,31.59
2023-06-27T00:18:35.943Z,31.07
2023-06-27T00:19:35.901Z,30.85
2023-06-27T00:20:35.897Z,31.75
2023-06-27T00:21:35.924Z,32.44
2023-06-27T00:22:35.962Z,32.01
2023-06-27T00:23:35.966Z,32.39
2023-06-27T00:24:36.006Z,31.63
2023-06-27T00:25:36.048Z,31.11
2023-06-27T00:26:36.074Z,30.82
2023-06-27T00:27:36.101Z,29.81
2023-06-27T00:28:36.111Z,29.52
2023-06-27T00:29:36.210Z,29.18
2023-06-27T00:30:36.179Z,29.35
2023-06-27T00:31:36.191Z,29.37
2023-06-27T00:32:36.276Z,29.92
2023-06-27T00:33:36.267Z,29.95
2023-06-27T00:34:36.287Z,30.65
2023-06-27T00:35:36.285Z,31.32
2023-06-27T00:36:36.328Z,31.66
2023-06-27T00:37:36.339Z,30.85
2023-06-27T00:38:36.381Z,31.82
2023-06-27T00:39:36.363Z,31.50
2023-06-27T00:40:36.522Z,30.72
2023-06-27T00:41:36.455Z,31.39
2023-06-27T00:42:36.452Z,30.42
2023-06-27T00:43:36.493Z,30.15
2023-06-27T00:44:36.507Z,31.68
2023-06-27T00:45:36.534Z,30.89
2023-06-27T00:46:36.559Z,30.11
2023-06-27T00:47:36.629Z,30.32
2023-06-27T00:48:36.600Z,29.42
2023-06-27T00:49:36.655Z,28.88
2023-06-27T00:50:36.655Z,28.97
2023-06-27T00:51:36.700Z,28.75
2023-06-27T00:52:36.715Z,29.13
2023-06-27T00:53:36.772Z,30.04
2023-06-27T00:54:36.782Z,29.12
2023-06-27T00:55:36.884Z,29.44
2023-06-27T00:56:36.826Z,30.06
2023-06-27T00:57:36.870Z,29.84
2023-06-27T00:58:36.872Z,29.76
2023-06-27T00:59:36.880Z,30.44
2023-06-27T01:00:36.909Z,31.64
2023-06-27T01:01:36.969Z,31.18
2023-06-27T01:02:37.062Z,30.73
2023-06-27T01:03:37.060Z,29.68
2023-06-27T01:04:37.027Z,30.31
2023-06-27T01:05:37.162Z,29.51
2023-06-27T01:06:37.082Z,29.83
2023-06-27T01:07:37.120Z,30.57
2023-06-27T01:08:37.181Z,29.99
2023-06-27T01:09:37.178Z,30.61
2023-06-27T01:10:37.260Z,30.30
2023-06-27T01:11:37.231Z,29.46
2023-06-27T01:12:37.240Z,29.64
2023-06-27T01:13:37.261Z,28.09
2023-06-27T01:14:37.268Z,28.58
2023-06-27T01:15:37.592Z,28.71
2023-06-27T01:16:37.354Z,29.20
2023-06-27T01:17:37.440Z,30.07
2023-06-27T01:18:37.429Z,29.89
2023-06-27T01:19:37.472Z,29.58
2023-06-27T01:20:37.453Z,29.85
2023-06-27T01:21:37.569Z,29.76
2023-06-27T01:22:37.490Z,30.91
2023-06-27T01:23:37.530Z,29.84
2023-06-27T01:24:37.557Z,30.47
2023-06-27T01:25:37.654Z,30.63
2023-06-27T01:26:37.617Z,30.59
2023-06-27T01:27:37.630Z,30.70
2023-06-27T01:28:37.733Z,30.47
2023-06-27T01:29:37.664Z,30.57
2023-06-27T01:30:37.728Z,30.01
2023-06-27T01:31:37.776Z,30.94
2023-06-27T01:32:37.753Z,31.07
2023-06-27T01:33:37.801Z,30.84
2023-06-27T01:34:37.845Z,31.09
2023-06-27T01:35:38.093Z,30.90
2023-06-27T01:36:38.111Z,30.31
2023-06-27T01:37:37.977Z,29.75
2023-06-27T01:38:37.933Z,30.37
2023-06-27T01:39:37.971Z,30.15
2023-06-27T01:40:37.987Z,30.15
2023-06-27T01:41:38.015Z,29.87
2023-06-27T01:42:38.022Z,30.55
2023-06-27T01:43:38.028Z,29.64
2023-06-27T01:44:38.068Z,29.51
2023-06-27T01:45:38.369Z,29.95
2023-06-27T01:46:38.131Z,29.85
2023-06-27T01:47:38.209Z,31.28
2023-06-27T01:48:38.139Z,31.82
2023-06-27T01:49:38.183Z,31.39
2023-06-27T01:50:38.211Z,31.52
2023-06-27T01:51:38.237Z,30.87
2023-06-27T01:52:38.244Z,30.28
2023-06-27T01:53:38.292Z,28.09
2023-06-27T01:54:38.311Z,28.91
2023-06-27T01:55:38.667Z,28.13
2023-06-27T01:56:38.316Z,28.67
2023-06-27T01:57:38.371Z,27.16
2023-06-27T01:58:38.365Z,27.19
2023-06-27T01:59:38.393Z,28.03
2023-06-27T02:00:38.398Z,27.77
2023-06-27T02:01:38.490Z,28.51
2023-06-27T02:02:38.545Z,28.75
2023-06-27T02:03:38.545Z,28.28
2023-06-27T02:04:38.531Z,28.46
2023-06-27T02:05:38.879Z,28.74
2023-06-27T02:06:38.587Z,28.50
2023-06-27T02:07:38.597Z,28.14
2023-06-27T02:08:38.637Z,28.35
2023-06-27T02:09:38.647Z,26.93
2023-06-27T02:10:38.637Z,24.92
2023-06-27T02:11:38.709Z,24.35
2023-06-27T02:12:38.692Z,24.45
2023-06-27T02:13:38.749Z,24.39
2023-06-27T02:14:38.780Z,24.81
2023-06-27T02:15:38.964Z,24.90
2023-06-27T02:16:38.808Z,25.64
2023-06-27T02:17:38.892Z,26.45
2023-06-27T02:18:38.873Z,26.21
2023-06-27T02:19:38.897Z,27.21
2023-06-27T02:20:38.936Z,27.63
2023-06-27T02:21:38.938Z,28.17
2023-06-27T02:22:38.967Z,27.78
2023-06-27T02:23:39.034Z,28.16
2023-06-27T02:24:39.068Z,27.61
2023-06-27T02:25:39.445Z,28.28
2023-06-27T02:26:39.101Z,28.82
2023-06-27T02:27:39.116Z,29.08
2023-06-27T02:28:39.186Z,28.36
2023-06-27T02:29:39.207Z,27.86
2023-06-27T02:30:39.431Z,28.02
2023-06-27T02:31:39.266Z,28.14
2023-06-27T02:32:39.344Z,28.51
2023-06-27T02:33:39.300Z,27.53
2023-06-27T02:34:39.352Z,27.67
2023-06-27T02:35:39.681Z,27.71
2023-06-27T02:36:39.410Z,26.57
2023-06-27T02:37:39.439Z,26.22
2023-06-27T02:38:39.421Z,26.17
2023-06-27T02:39:39.488Z,26.22
2023-06-27T02:40:39.501Z,26.52
2023-06-27T02:41:39.497Z,26.57
2023-06-27T02:42:39.508Z,26.92
2023-06-27T02:43:39.579Z,26.70
2023-06-27T02:44:39.607Z,26.71
2023-06-27T02:45:39.850Z,26.52
2023-06-27T02:46:39.646Z,26.51
2023-06-27T02:47:39.711Z,26.23
2023-06-27T02:48:39.680Z,25.44
2023-06-27T02:49:39.722Z,25.53
2023-06-27T02:50:39.729Z,25.41
2023-06-27T02:51:39.786Z,26.33
2023-06-27T02:52:39.795Z,25.79
2023-06-27T02:53:39.898Z,25.53
2023-06-27T02:54:39.902Z,25.15
2023-06-27T02:55:40.213Z,25.32
2023-06-27T02:56:39.927Z,24.87
2023-06-27T02:57:39.960Z,25.26
2023-06-27T02:58:39.978Z,24.51
2023-06-27T02:59:40.005Z,24.45
2023-06-27T03:00:40.034Z,24.54
2023-06-27T03:01:40.091Z,24.22
2023-06-27T03:02:40.245Z,24.45
2023-06-27T03:03:40.187Z,23.64
2023-06-27T03:04:40.299Z,23.65
2023-06-27T03:05:40.442Z,23.65
2023-06-27T03:06:40.217Z,23.59
2023-06-27T03:07:40.241Z,24.14
2023-06-27T03:08:40.284Z,23.70
2023-06-27T03:09:40.331Z,23.82
2023-06-27T03:10:40.332Z,23.91
2023-06-27T03:11:40.356Z,24.53
2023-06-27T03:12:40.373Z,24.13
2023-06-27T03:13:40.412Z,23.84
2023-06-27T03:14:40.445Z,24.88
2023-06-27T03:15:40.652Z,24.64
2023-06-27T03:16:40.508Z,23.94
2023-06-27T03:17:42.060Z,24.34
2023-06-27T03:18:40.545Z,24.48
2023-06-27T03:19:45.172Z,23.89
2023-06-27T03:20:41.591Z,23.93
2023-06-27T03:21:40.569Z,24.15
2023-06-27T03:22:40.573Z,24.04
2023-06-27T03:23:40.546Z,24.02
2023-06-27T03:24:40.546Z,23.81
2023-06-27T03:25:40.736Z,23.39
2023-06-27T03:26:40.529Z,23.50
2023-06-27T03:27:40.551Z,22.50
2023-06-27T03:28:40.533Z,22.40
2023-06-27T03:29:40.483Z,21.94
2023-06-27T03:30:40.546Z,21.93
2023-06-27T03:31:40.540Z,22.52
2023-06-27T03:32:40.561Z,22.01
2023-06-27T03:33:40.471Z,21.69
2023-06-27T03:34:40.499Z,21.86
2023-06-27T03:35:40.952Z,21.93
2023-06-27T03:36:40.625Z,21.34
2023-06-27T03:37:40.625Z,21.01
2023-06-27T03:38:40.654Z,20.67
2023-06-27T03:39:40.680Z,20.79
2023-06-27T03:40:40.701Z,20.52
2023-06-27T03:41:40.742Z,20.92
2023-06-27T03:42:40.763Z,20.84
2023-06-27T03:43:40.830Z,20.11
2023-06-27T03:44:40.822Z,20.50
2023-06-27T03:45:41.203Z,19.83
2023-06-27T03:46:40.883Z,19.76
2023-06-27T03:47:40.992Z,19.37
2023-06-27T03:48:40.931Z,18.56
2023-06-27T03:49:40.958Z,19.16
2023-06-27T03:50:41.003Z,19.04
2023-06-27T03:51:41.026Z,18.82
2023-06-27T03:52:41.028Z,18.81
2023-06-27T03:53:41.060Z,18.48
2023-06-27T03:54:41.080Z,18.58
2023-06-27T03:55:41.340Z,18.78
2023-06-27T03:56:41.164Z,19.01
2023-06-27T03:57:41.175Z,18.64
2023-06-27T03:58:41.174Z,18.83
2023-06-27T03:59:41.228Z,18.36
2023-06-27T04:00:41.256Z,18.82
2023-06-27T04:01:41.276Z,19.34
2023-06-27T04:02:41.365Z,18.60
2023-06-27T04:03:41.460Z,18.88
2023-06-27T04:04:41.580Z,19.25
2023-06-27T04:05:41.628Z,18.66
2023-06-27T04:06:41.376Z,18.69
2023-06-27T04:07:41.435Z,18.50
2023-06-27T04:08:41.446Z,18.26
2023-06-27T04:09:41.451Z,18.39
2023-06-27T04:10:41.505Z,18.40
2023-06-27T04:11:41.506Z,18.08
2023-06-27T04:12:41.548Z,17.87
2023-06-27T04:13:41.549Z,17.64
2023-06-27T04:14:41.582Z,17.07
2023-06-27T04:15:42.065Z,17.64
2023-06-27T04:16:41.696Z,17.11
2023-06-27T04:17:41.767Z,17.18
2023-06-27T04:18:41.696Z,17.16
2023-06-27T04:19:41.713Z,16.92
2023-06-27T04:20:41.744Z,16.75
2023-06-27T04:21:41.784Z,16.52
2023-06-27T04:22:41.777Z,16.35
2023-06-27T04:23:41.827Z,15.40
2023-06-27T04:24:41.835Z,15.19
2023-06-27T04:25:42.175Z,15.27
2023-06-27T04:26:41.917Z,15.84
2023-06-27T04:27:41.920Z,15.54
2023-06-27T04:28:41.953Z,15.52
2023-06-27T04:29:41.972Z,14.92
2023-06-27T04:30:42.046Z,15.76
2023-06-27T04:31:42.101Z,15.52
2023-06-27T04:32:42.100Z,15.78
2023-06-27T04:33:42.130Z,15.13
2023-06-27T04:34:42.131Z,15.15
2023-06-27T04:35:42.456Z,14.81
2023-06-27T04:36:42.364Z,14.24
2023-06-27T04:37:42.213Z,15.13
2023-06-27T04:38:42.223Z,14.69
2023-06-27T04:39:42.286Z,14.73
2023-06-27T04:40:42.273Z,14.44
2023-06-27T04:41:42.381Z,13.98
2023-06-27T04:42:42.327Z,14.06
2023-06-27T04:43:42.363Z,13.82
2023-06-27T04:44:42.390Z,13.49
2023-06-27T04:45:42.684Z,13.72
2023-06-27T04:46:42.473Z,14.03
2023-06-27T04:47:42.505Z,13.59
2023-06-27T04:48:42.513Z,13.86
2023-06-27T04:49:42.514Z,13.58
2023-06-27T04:50:42.553Z,13.27
2023-06-27T04:51:42.921Z,12.76
2023-06-27T04:52:42.717Z,13.25
2023-06-27T04:53:42.670Z,12.67
2023-06-27T04:54:42.650Z,12.77
2023-06-27T04:55:42.939Z,12.87
2023-06-27T04:56:42.720Z,12.64
2023-06-27T04:57:42.760Z,12.14
2023-06-27T04:58:42.765Z,11.65
2023-06-27T04:59:42.829Z,11.67
2023-06-27T05:00:42.897Z,11.72
2023-06-27T05:01:50.416Z,11.42
2023-06-27T05:02:49.763Z,11.43
2023-06-27T05:03:43.917Z,11.45
2023-06-27T05:04:42.909Z,11.46
2023-06-27T05:05:43.161Z,11.17
2023-06-27T05:06:42.915Z,11.27
2023-06-27T05:07:42.938Z,11.21
2023-06-27T05:08:42.938Z,10.98
2023-06-27T05:09:42.937Z,11.41
2023-06-27T05:10:42.884Z,10.82
2023-06-27T05:11:42.909Z,10.68
2023-06-27T05:12:42.886Z,10.61
2023-06-27T05:13:42.905Z,10.28
2023-06-27T05:14:42.898Z,10.50
2023-06-27T05:15:43.369Z,10.49
2023-06-27T05:16:42.974Z,10.17
2023-06-27T05:17:43.013Z,10.63
2023-06-27T05:18:43.029Z,10.34
2023-06-27T05:19:43.049Z,10.47
2023-06-27T05:20:43.048Z,10.05
2023-06-27T05:21:43.130Z,10.17
2023-06-27T05:22:43.131Z,9.95
2023-06-27T05:23:43.154Z,9.87
2023-06-27T05:24:43.179Z,9.40
2023-06-27T05:25:43.366Z,9.47
2023-06-27T05:26:43.209Z,9.12
2023-06-27T05:27:43.265Z,9.19
2023-06-27T05:28:43.285Z,9.50
2023-06-27T05:29:43.281Z,9.62
2023-06-27T05:30:43.349Z,9.28
2023-06-27T05:31:43.398Z,8.75
2023-06-27T05:32:43.509Z,8.66
2023-06-27T05:33:43.412Z,8.54
2023-06-27T05:34:43.444Z,8.34
2023-06-27T05:35:43.646Z,6.89
2023-06-27T05:36:43.979Z,5.13
2023-06-27T05:37:43.985Z,4.16
2023-06-27T05:38:43.551Z,3.58
2023-06-27T05:39:43.595Z,3.02
2023-06-27T05:40:43.689Z,2.66
2023-06-27T05:41:43.716Z,2.87
2023-06-27T05:42:43.988Z,2.90
2023-06-27T05:43:43.772Z,2.65
2023-06-27T05:44:43.788Z,2.01
2023-06-27T05:45:44.004Z,1.63
2023-06-27T05:46:51.528Z,1.30
2023-06-27T05:47:43.868Z,1.19
2023-06-27T05:48:43.855Z,0.78
2023-06-27T05:49:43.898Z,0.66
2023-06-27T05:50:43.873Z,0.65
2023-06-27T05:51:44.055Z,0.69
2023-06-27T05:52:43.901Z,0.75
2023-06-27T05:53:43.892Z,0.75
2023-06-27T05:54:44.514Z,0.78
2023-06-27T05:55:43.900Z,0.72
2023-06-27T05:56:43.883Z,0.62
2023-06-27T05:57:44.018Z,0.57
2023-06-27T05:58:43.859Z,0.52
2023-06-27T05:59:43.875Z,0.50
2023-06-27T06:00:43.897Z,0.52
2023-06-27T06:01:43.941Z,0.49
2023-06-27T06:02:44.172Z,0.49
2023-06-27T06:03:46.059Z,0.50
2023-06-27T06:04:44.072Z,0.52
2023-06-27T06:05:44.093Z,0.51
2023-06-27T06:06:44.176Z,0.50
2023-06-27T06:07:44.156Z,0.50
2023-06-27T06:08:44.174Z,0.50
2023-06-27T06:09:44.317Z,0.55
2023-06-27T06:10:44.322Z,0.60
2023-06-27T06:11:44.323Z,0.63
2023-06-27T06:12:44.380Z,0.67
2023-06-27T06:13:44.394Z,0.71
2023-06-27T06:14:44.564Z,0.79
2023-06-27T06:15:44.528Z,0.82
2023-06-27T06:16:44.692Z,0.88
2023-06-27T06:17:45.092Z,0.95
2023-06-27T06:18:44.727Z,1.01
2023-06-27T06:19:44.788Z,1.05
2023-06-27T06:20:44.803Z,1.09
2023-06-27T06:21:45.043Z,1.19
2023-06-27T06:22:45.021Z,1.29
2023-06-27T06:23:44.928Z,1.37
2023-06-27T06:24:44.981Z,1.43
2023-06-27T06:25:45.144Z,1.44
2023-06-27T06:26:45.170Z,1.56
2023-06-27T06:27:45.124Z,1.68
2023-06-27T06:28:45.161Z,1.74
2023-06-27T06:29:45.207Z,1.80
2023-06-27T06:30:45.251Z,1.94
2023-06-27T06:31:45.321Z,2.04
2023-06-27T06:32:45.365Z,2.09
2023-06-27T06:33:45.480Z,2.15
2023-06-27T06:34:45.466Z,2.34
2023-06-27T06:35:45.475Z,2.34
2023-06-27T06:36:45.521Z,2.42
2023-06-27T06:37:46.081Z,2.52
2023-06-27T06:38:45.678Z,2.56
2023-06-27T06:39:45.678Z,2.71
2023-06-27T06:40:45.762Z,2.74
2023-06-27T06:41:45.782Z,2.89
2023-06-27T06:42:46.037Z,2.96
2023-06-27T06:43:45.905Z,3.15
2023-06-27T06:44:45.853Z,3.15
2023-06-27T06:45:45.950Z,3.27
2023-06-27T06:46:46.052Z,3.37
2023-06-27T06:47:46.113Z,3.43
2023-06-27T06:48:46.015Z,3.36
2023-06-27T06:49:46.059Z,3.33
2023-06-27T06:50:46.096Z,3.21
2023-06-27T06:51:46.136Z,3.14
2023-06-27T06:52:46.188Z,3.13
2023-06-27T06:53:46.203Z,3.13
2023-06-27T06:54:46.207Z,3.19
2023-06-27T06:55:46.265Z,3.21
2023-06-27T06:56:46.315Z,3.38
2023-06-27T06:57:46.353Z,3.45
2023-06-27T06:58:46.526Z,3.40
2023-06-27T06:59:46.396Z,3.45
2023-06-27T07:00:46.441Z,3.47
2023-06-27T07:01:46.543Z,3.38
2023-06-27T07:02:46.594Z,3.61
2023-06-27T07:03:46.571Z,3.78
2023-06-27T07:04:46.601Z,3.78
2023-06-27T07:05:46.648Z,3.93
2023-06-27T07:06:46.719Z,3.88
2023-06-27T07:07:46.662Z,3.89
2023-06-27T07:08:46.708Z,4.00
2023-06-27T07:09:46.707Z,3.99
2023-06-27T07:10:46.752Z,4.03
2023-06-27T07:11:46.802Z,4.06
2023-06-27T07:12:46.829Z,4.06
2023-06-27T07:13:46.881Z,3.82
2023-06-27T07:14:46.890Z,3.91
2023-06-27T07:15:46.913Z,3.73
2023-06-27T07:16:46.934Z,3.90
2023-06-27T07:17:47.031Z,3.86
2023-06-27T07:18:46.998Z,3.90
2023-06-27T07:19:47.054Z,3.97
2023-06-27T07:20:47.103Z,3.98
2023-06-27T07:21:47.133Z,4.07
2023-06-27T07:22:47.144Z,4.14
2023-06-27T07:23:47.596Z,4.22
2023-06-27T07:24:47.187Z,4.31
2023-06-27T07:25:47.234Z,4.30
2023-06-27T07:26:47.262Z,4.22
2023-06-27T07:27:47.332Z,4.35
2023-06-27T07:28:47.576Z,4.32
2023-06-27T07:29:47.370Z,4.33
2023-06-27T07:30:47.479Z,4.51
2023-06-27T07:31:47.411Z,4.59
2023-06-27T07:32:47.470Z,4.84
2023-06-27T07:33:47.600Z,4.74
2023-06-27T07:34:47.470Z,4.72
2023-06-27T07:35:47.515Z,4.90
2023-06-27T07:36:47.518Z,4.81
2023-06-27T07:37:47.516Z,4.96
2023-06-27T07:38:47.595Z,5.12
2023-06-27T07:39:47.533Z,5.38
2023-06-27T07:40:47.574Z,5.27
2023-06-27T07:41:47.534Z,5.36
2023-06-27T07:42:47.589Z,5.23
2023-06-27T07:43:48.090Z,5.31
2023-06-27T07:44:47.606Z,5.51
2023-06-27T07:45:47.634Z,5.45
2023-06-27T07:46:47.611Z,5.31
2023-06-27T07:47:47.671Z,5.41
2023-06-27T07:48:48.132Z,5.41
2023-06-27T07:49:47.687Z,5.44
2023-06-27T07:50:47.674Z,5.64
2023-06-27T07:51:47.690Z,5.69
2023-06-27T07:52:47.709Z,5.70
2023-06-27T07:53:48.096Z,5.53
2023-06-27T07:54:47.740Z,5.63
2023-06-27T07:55:48.680Z,5.65
2023-06-27T07:56:47.759Z,5.69
2023-06-27T07:57:47.694Z,5.80
2023-06-27T07:58:48.068Z,5.83
2023-06-27T07:59:47.651Z,5.99
2023-06-27T08:00:47.600Z,5.80
2023-06-27T08:01:47.647Z,5.50
2023-06-27T08:02:47.645Z,5.36
2023-06-27T08:03:47.699Z,5.61
2023-06-27T08:04:47.619Z,5.50
2023-06-27T08:05:47.594Z,5.69
2023-06-27T08:06:47.587Z,5.58
2023-06-27T08:07:47.599Z,5.39
2023-06-27T08:08:47.583Z,5.58
2023-06-27T08:09:47.540Z,5.77
2023-06-27T08:10:47.555Z,5.93
2023-06-27T08:11:47.508Z,5.93
2023-06-27T08:13:42.091Z,0.50
2023-06-27T08:14:41.949Z,0.50
2023-06-27T08:15:41.949Z,0.50
2023-06-27T08:16:41.935Z,0.50
2023-06-27T08:17:42.011Z,0.50
2023-06-27T08:18:41.938Z,0.52
2023-06-27T08:19:41.965Z,0.50
2023-06-27T08:20:42.272Z,0.52
2023-06-27T08:21:41.972Z,0.50
2023-06-27T08:22:41.988Z,0.53
2023-06-27T08:23:42.813Z,0.51
2023-06-27T08:24:41.961Z,0.50
2023-06-27T08:25:42.287Z,0.55
2023-06-27T08:26:41.963Z,0.54
2023-06-27T08:27:42.037Z,0.52
2023-06-27T08:28:41.992Z,0.52
2023-06-27T08:29:41.992Z,0.52
2023-06-27T08:30:42.180Z,0.54
2023-06-27T08:31:41.974Z,0.57
2023-06-27T08:32:42.004Z,0.56
2023-06-27T08:33:41.996Z,0.53
2023-06-27T08:34:42.113Z,0.55
2023-06-27T08:35:41.980Z,0.56
2023-06-27T08:36:41.967Z,0.59
2023-06-27T08:37:41.978Z,0.60
2023-06-27T08:38:41.978Z,0.60
2023-06-27T08:39:42.659Z,0.60
2023-06-27T08:40:42.898Z,0.61
2023-06-27T08:41:41.961Z,0.59
2023-06-27T08:42:41.987Z,0.61
2023-06-27T08:43:41.952Z,0.61
2023-06-27T08:44:41.944Z,0.62
2023-06-27T08:45:41.963Z,0.61
2023-06-27T08:46:41.960Z,0.60
2023-06-27T08:47:42.010Z,0.62
2023-06-27T08:48:41.946Z,0.61
2023-06-27T08:49:42.798Z,0.59
2023-06-27T08:50:42.232Z,0.58
2023-06-27T08:51:42.112Z,0.58
2023-06-27T08:52:42.009Z,0.58
2023-06-27T08:53:42.001Z,0.60
2023-06-27T08:54:42.249Z,0.58
2023-06-27T08:55:42.048Z,0.60
2023-06-27T08:56:42.056Z,0.61
2023-06-27T08:57:42.112Z,0.61
2023-06-27T08:58:42.133Z,0.62
2023-06-27T08:59:43.946Z,0.62
2023-06-27T09:00:42.382Z,0.63
2023-06-27T09:01:42.302Z,0.63
2023-06-27T09:02:42.528Z,0.58
2023-06-27T09:03:42.414Z,0.55
2023-06-27T09:04:42.518Z,0.60
2023-06-27T09:05:42.421Z,0.58
2023-06-27T09:06:42.497Z,0.57
2023-06-27T09:07:42.503Z,0.58
2023-06-27T09:08:42.570Z,0.58
2023-06-27T09:09:42.666Z,0.60
2023-06-27T09:10:42.833Z,0.58
2023-06-27T09:11:42.679Z,0.61
2023-06-27T09:12:42.644Z,0.60
2023-06-27T09:13:42.679Z,0.63
2023-06-27T09:14:42.762Z,0.63
2023-06-27T09:15:43.910Z,0.65
2023-06-27T09:16:42.880Z,0.66
2023-06-27T09:17:42.795Z,0.68
2023-06-27T09:18:42.799Z,0.66
2023-06-27T09:19:42.828Z,0.69
2023-06-27T09:20:43.069Z,0.67
2023-06-27T09:21:42.861Z,0.68
2023-06-27T09:22:44.095Z,0.67
2023-06-27T09:23:43.627Z,0.68
2023-06-27T09:24:43.151Z,0.67
2023-06-27T09:25:43.144Z,0.71
2023-06-27T09:26:43.202Z,0.68
2023-06-27T09:27:43.188Z,0.71
2023-06-27T09:28:43.221Z,0.74
2023-06-27T09:29:43.270Z,0.73
2023-06-27T09:30:43.400Z,0.78
2023-06-27T09:31:43.467Z,0.74
2023-06-27T09:32:43.489Z,0.74
2023-06-27T09:33:45.777Z,0.76
2023-06-27T09:34:43.652Z,0.77
2023-06-27T09:36:00.325Z,0.78
2023-06-27T09:38:46.635Z,0.78
2023-06-27T09:39:44.684Z,0.78
2023-06-27T09:40:43.473Z,0.78
2023-06-27T09:41:43.447Z,0.77
2023-06-27T09:42:43.480Z,0.73
2023-06-27T09:43:43.459Z,0.78
2023-06-27T09:44:43.695Z,0.78
2023-06-27T09:45:43.609Z,0.77
2023-06-27T09:46:43.486Z,0.78
2023-06-27T09:47:45.046Z,0.80
2023-06-27T09:48:44.157Z,0.79
2023-06-27T09:49:45.107Z,0.81
2023-06-27T09:50:44.175Z,0.79
2023-06-27T09:51:43.659Z,0.77
2023-06-27T09:52:43.680Z,0.75
2023-06-27T09:53:43.809Z,0.75
2023-06-27T09:54:44.173Z,0.75
2023-06-27T09:55:43.972Z,0.78
2023-06-27T09:56:43.888Z,0.78
2023-06-27T09:57:43.980Z,0.79
2023-06-27T09:58:44.024Z,0.77
2023-06-27T09:59:44.686Z,0.78
2023-06-27T10:00:44.096Z,0.79
2023-06-27T10:01:45.139Z,0.78
2023-06-27T10:02:44.245Z,0.78
2023-06-27T10:03:44.259Z,0.79
2023-06-27T10:04:44.648Z,0.78
2023-06-27T10:05:54.407Z,0.79
2023-06-27T10:06:45.516Z,0.79
2023-06-27T10:07:44.335Z,0.80
2023-06-27T10:08:44.368Z,0.80
2023-06-27T10:09:44.367Z,0.83
2023-06-27T10:10:44.649Z,0.87
2023-06-27T10:11:44.322Z,0.88
2023-06-27T10:12:44.324Z,0.88
2023-06-27T10:13:44.314Z,0.87
2023-06-27T10:14:44.326Z,0.89
2023-06-27T10:15:44.692Z,0.92
2023-06-27T10:16:44.466Z,0.90
2023-06-27T10:17:44.569Z,0.92
2023-06-27T10:18:52.061Z,0.91
2023-06-27T10:19:44.583Z,0.91
2023-06-27T10:20:44.579Z,0.92
2023-06-27T10:21:44.566Z,0.93
2023-06-27T10:22:44.611Z,0.94
2023-06-27T10:23:44.604Z,0.99
2023-06-27T10:24:44.671Z,0.95
2023-06-27T10:25:44.893Z,0.94
2023-06-27T10:26:44.683Z,0.94
2023-06-27T10:27:44.576Z,0.91
2023-06-27T10:28:44.585Z,0.92
2023-06-27T10:29:44.587Z,0.92
2023-06-27T10:30:44.629Z,0.93
2023-06-27T10:31:44.604Z,0.92
2023-06-27T10:32:44.636Z,0.96
2023-06-27T10:33:44.608Z,0.93
2023-06-27T10:34:44.539Z,0.87
2023-06-27T10:35:44.672Z,0.88
2023-06-27T10:36:44.563Z,0.94
2023-06-27T10:37:44.578Z,0.92
2023-06-27T10:38:44.582Z,0.93
2023-06-27T10:39:44.724Z,0.97
2023-06-27T10:40:45.174Z,0.93
2023-06-27T10:41:44.772Z,0.98
2023-06-27T10:42:44.844Z,1.03
2023-06-27T10:43:44.874Z,0.98
2023-06-27T10:44:44.922Z,0.92
2023-06-27T10:45:45.186Z,0.92
2023-06-27T10:46:45.056Z,0.90
2023-06-27T10:47:45.215Z,0.92
2023-06-27T10:48:47.344Z,0.91
2023-06-27T10:49:45.201Z,1.02
2023-06-27T10:50:45.454Z,0.83
2023-06-27T10:51:45.318Z,0.77
2023-06-27T10:52:45.372Z,0.73
2023-06-27T10:53:45.392Z,0.72
2023-06-27T10:54:45.489Z,0.72
2023-06-27T10:55:45.521Z,0.76
2023-06-27T10:56:45.608Z,0.70
2023-06-27T10:57:45.674Z,0.69
2023-06-27T10:58:45.768Z,0.72
2023-06-27T10:59:45.685Z,0.77
2023-06-27T11:00:46.985Z,0.81
2023-06-27T11:01:45.799Z,0.87
2023-06-27T11:02:45.957Z,0.90
2023-06-27T11:03:46.019Z,0.94
2023-06-27T11:04:46.015Z,0.93
2023-06-27T11:05:46.016Z,0.91
2023-06-27T11:06:46.097Z,1.00
2023-06-27T11:07:46.098Z,0.96
2023-06-27T11:08:46.187Z,1.01
2023-06-27T11:09:46.237Z,1.04
2023-06-27T11:10:46.667Z,1.10
2023-06-27T11:11:46.311Z,1.09
2023-06-27T11:12:46.418Z,1.08
2023-06-27T11:13:46.447Z,1.05
2023-06-27T11:14:46.556Z,1.00
2023-06-27T11:15:46.548Z,1.06
2023-06-27T11:16:46.705Z,1.09
2023-06-27T11:17:46.714Z,1.11
2023-06-27T11:18:46.700Z,1.17
2023-06-27T11:19:46.775Z,1.13
2023-06-27T11:20:47.213Z,0.99
2023-06-27T11:21:46.861Z,0.87
2023-06-27T11:22:46.929Z,0.83
2023-06-27T11:23:46.985Z,0.89
2023-06-27T11:24:47.028Z,0.95
2023-06-27T11:25:47.148Z,1.02
2023-06-27T11:26:47.131Z,1.07
2023-06-27T11:27:47.174Z,1.16
2023-06-27T11:28:47.281Z,1.22
2023-06-27T11:29:47.376Z,1.25
2023-06-27T11:30:48.232Z,1.31
2023-06-27T11:31:47.441Z,1.31
2023-06-27T11:32:47.512Z,1.27
2023-06-27T11:33:47.488Z,1.19
2023-06-27T11:34:47.550Z,1.22
2023-06-27T11:35:47.732Z,1.26
2023-06-27T11:36:47.684Z,1.25
2023-06-27T11:37:47.728Z,1.25
2023-06-27T11:38:47.781Z,1.31
2023-06-27T11:39:47.875Z,1.29
2023-06-27T11:40:47.956Z,1.28
2023-06-27T11:41:47.963Z,1.33
2023-06-27T11:42:47.996Z,1.38
2023-06-27T11:43:48.028Z,1.43
2023-06-27T11:44:48.093Z,1.48
2023-06-27T11:45:48.191Z,1.48
2023-06-27T11:46:48.156Z,1.49
2023-06-27T11:47:48.245Z,1.47
2023-06-27T11:48:48.291Z,1.48
2023-06-27T11:49:48.306Z,1.41
2023-06-27T11:50:48.372Z,1.40
2023-06-27T11:51:48.441Z,1.50
2023-06-27T11:52:48.472Z,1.54
2023-06-27T11:53:48.512Z,1.53
2023-06-27T11:54:48.550Z,1.57
2023-06-27T11:55:51.885Z,1.56
2023-06-27T11:56:49.647Z,1.56
2023-06-27T11:57:48.629Z,1.57
2023-06-27T11:58:48.601Z,1.59
2023-06-27T11:59:48.561Z,1.52
2023-06-27T12:00:48.576Z,1.48
2023-06-27T12:01:48.615Z,1.42
2023-06-27T12:02:48.585Z,1.34
2023-06-27T12:03:48.624Z,1.30
2023-06-27T12:04:48.588Z,1.33
2023-06-27T12:05:48.585Z,1.39
2023-06-27T12:06:48.611Z,1.44
2023-06-27T12:07:48.654Z,1.45
2023-06-27T12:08:48.769Z,1.47
2023-06-27T12:09:48.743Z,1.51
2023-06-27T12:10:48.771Z,1.53
2023-06-27T12:11:48.873Z,1.55
2023-06-27T12:12:48.988Z,1.52
2023-06-27T12:13:48.959Z,1.54
2023-06-27T12:14:48.969Z,1.56
2023-06-27T12:15:49.010Z,1.63
2023-06-27T12:16:49.078Z,1.60
2023-06-27T12:17:49.118Z,1.62
2023-06-27T12:18:49.168Z,1.68
2023-06-27T12:19:49.242Z,1.64
2023-06-27T12:20:49.246Z,1.66
2023-06-27T12:21:49.345Z,1.65
2023-06-27T12:22:49.378Z,1.67
2023-06-27T12:23:49.459Z,1.69
2023-06-27T12:24:49.486Z,1.69
2023-06-27T12:25:49.535Z,1.74
2023-06-27T12:26:49.600Z,1.73
2023-06-27T12:27:49.623Z,1.73
2023-06-27T12:28:49.672Z,1.69
2023-06-27T12:29:49.719Z,1.64
2023-06-27T12:30:49.796Z,1.67
2023-06-27T12:31:49.836Z,1.62
2023-06-27T12:32:49.880Z,1.67
2023-06-27T12:33:49.901Z,1.64
2023-06-27T12:34:50.063Z,1.63
2023-06-27T12:35:49.984Z,1.66
2023-06-27T12:36:50.054Z,1.55
2023-06-27T12:37:50.228Z,1.56
2023-06-27T12:38:50.164Z,1.62
2023-06-27T12:39:50.163Z,1.67
2023-06-27T12:40:50.231Z,1.67
2023-06-27T12:41:50.284Z,1.68
2023-06-27T12:42:50.325Z,1.69
2023-06-27T12:43:50.349Z,1.68
2023-06-27T12:44:50.442Z,1.69
2023-06-27T12:45:50.453Z,1.72
2023-06-27T12:46:50.491Z,1.69
2023-06-27T12:47:50.599Z,1.67
2023-06-27T12:48:50.594Z,1.60
2023-06-27T12:49:50.641Z,1.66
2023-06-27T12:50:50.653Z,1.69
2023-06-27T12:51:50.738Z,1.68
2023-06-27T12:52:50.780Z,1.68
2023-06-27T12:53:50.826Z,1.65
2023-06-27T12:54:50.896Z,1.71
2023-06-27T12:55:50.927Z,1.71
2023-06-27T12:56:50.982Z,1.69
2023-06-27T12:57:50.985Z,1.70
2023-06-27T12:58:51.057Z,1.72
2023-06-27T12:59:51.091Z,1.68
2023-06-27T13:00:51.139Z,1.60
2023-06-27T13:01:51.212Z,1.58
2023-06-27T13:03:00.612Z,1.59
2023-06-27T13:03:52.267Z,1.60
2023-06-27T13:04:51.240Z,1.61
2023-06-27T13:05:51.226Z,1.63
2023-06-27T13:06:51.394Z,1.62
2023-06-27T13:07:51.204Z,1.77
2023-06-27T13:08:51.252Z,1.60
2023-06-27T13:09:51.235Z,1.11
2023-06-27T13:10:51.260Z,0.75